Time;durP1;ratioP1;P1;durP2;ratioP2;P2;SDS_P1;SDS_P2;PMS_P1;PMS_P2;Temp;Humidity;BMP_temperature;BMP_pressure;BME280_temperature;BME280_humidity;BME280_pressure;Samples;Min_cycle;Max_cycle;Signal;HPM_P1;HPM_P2
2022/05/25 00:01:42;;;;;;;6.20;4.30;;;13.70;1.00;;;;;;5124010;27;20680;-78
2022/05/25 00:04:16;;;;;;;4.63;4.13;;;13.60;1.00;;;;;;5132857;27;20958;-76
2022/05/25 00:06:46;;;;;;;6.07;4.50;;;13.60;1.00;;;;;;5120300;27;20451;-76
2022/05/25 00:09:15;;;;;;;4.70;4.23;;;13.60;1.00;;;;;;5118616;27;20490;-77
2022/05/25 00:11:45;;;;;;;5.33;4.10;;;13.50;1.00;;;;;;5119044;27;20518;-76
2022/05/25 00:14:15;;;;;;;6.50;4.57;;;13.50;1.00;;;;;;5119723;27;20425;-75
2022/05/25 00:16:45;;;;;;;6.30;5.70;;;13.50;1.00;;;;;;5122831;27;20494;-77
2022/05/25 00:22:03;;;;;;;5.27;4.77;;;13.40;1.00;;;;;;5131014;27;20447;-78
2022/05/25 00:24:34;;;;;;;5.50;5.00;;;13.40;1.00;;;;;;5130344;27;20437;-76
2022/05/25 00:27:04;;;;;;;5.83;5.23;;;13.40;1.00;;;;;;5127533;27;20401;-75
2022/05/25 00:29:36;;;;;;;8.20;5.70;;;13.30;1.00;;;;;;5130247;27;20466;-76
2022/05/25 00:32:07;;;;;;;7.80;5.27;;;13.30;1.00;;;;;;5131929;27;20418;-76
2022/05/25 00:34:39;;;;;;;5.90;5.37;;;13.20;1.00;;;;;;5131004;27;20511;-75
2022/05/25 00:37:06;;;;;;;6.43;5.70;;;13.20;1.00;;;;;;5120273;27;20419;-76
2022/05/25 00:39:35;;;;;;;6.53;5.77;;;13.20;1.00;;;;;;5124347;27;20998;-76
2022/05/25 00:42:06;;;;;;;7.17;6.23;;;13.10;1.00;;;;;;5131332;27;20452;-75
2022/05/25 00:44:37;;;;;;;5.70;5.20;;;13.20;1.00;;;;;;5129191;27;20428;-76
2022/05/25 00:47:08;;;;;;;6.13;5.60;;;13.10;1.00;;;;;;5128938;27;20421;-76
2022/05/25 00:49:37;;;;;;;7.10;5.37;;;13.10;1.00;;;;;;5105224;27;20555;-76
2022/05/25 00:52:07;;;;;;;6.93;5.63;;;13.10;1.00;;;;;;5132996;27;20417;-76
2022/05/25 00:54:42;;;;;;;6.00;5.40;;;13.10;1.00;;;;;;5130834;27;20427;-76
2022/05/25 00:57:18;;;;;;;6.17;5.57;;;13.10;1.00;;;;;;5132804;27;20424;-76
2022/05/25 00:59:58;;;;;;;6.33;5.73;;;13.10;1.00;;;;;;5131317;27;20421;-75
2022/05/25 01:02:28;;;;;;;7.50;6.17;;;13.10;1.00;;;;;;5121455;27;20431;-76
2022/05/25 01:04:56;;;;;;;6.40;5.80;;;13.10;1.00;;;;;;5132040;27;20456;-77
2022/05/25 01:07:44;;;;;;;6.17;5.57;;;13.00;1.00;;;;;;5104413;27;20471;-76
2022/05/25 01:10:30;;;;;;;6.07;5.57;;;13.10;1.00;;;;;;5123275;27;20424;-74
2022/05/25 01:13:15;;;;;;;6.37;5.37;;;13.10;1.00;;;;;;5121003;27;20486;-76
2022/05/25 01:15:58;;;;;;;6.13;5.17;;;13.10;1.00;;;;;;5124779;27;20436;-77
2022/05/25 01:18:35;;;;;;;6.83;5.53;;;13.10;1.00;;;;;;5136017;27;20454;-76
2022/05/25 01:21:14;;;;;;;6.80;6.10;;;13.10;1.00;;;;;;5130852;27;20446;-73
2022/05/25 01:24:12;;;;;;;8.27;6.77;;;13.10;1.00;;;;;;5128477;27;20422;-76
2022/05/25 01:27:15;;;;;;;5.97;5.37;;;13.10;1.00;;;;;;5119929;27;20432;-77
2022/05/25 01:30:17;;;;;;;6.20;5.60;;;13.10;1.00;;;;;;5129708;27;20419;-74
2022/05/25 01:33:04;;;;;;;7.03;5.77;;;13.00;1.00;;;;;;5134874;27;20447;-75
2022/05/25 01:35:44;;;;;;;6.50;5.70;;;12.90;1.00;;;;;;5136183;27;20425;-74
2022/05/25 01:38:21;;;;;;;6.77;6.17;;;12.90;1.00;;;;;;5134764;27;20427;-77
2022/05/25 01:40:57;;;;;;;8.17;6.10;;;12.90;1.00;;;;;;5125015;27;20450;-77
2022/05/25 01:43:37;;;;;;;6.23;5.63;;;12.80;1.00;;;;;;5127693;27;20497;-78
2022/05/25 01:46:15;;;;;;;6.63;6.03;;;12.70;1.00;;;;;;5129326;27;20488;-77
2022/05/25 01:48:47;;;;;;;7.23;6.20;;;12.60;1.00;;;;;;5132192;27;20436;-76
2022/05/25 01:51:21;;;;;;;7.00;6.40;;;12.50;1.00;;;;;;5119298;27;20423;-77
2022/05/25 01:53:58;;;;;;;7.93;6.27;;;12.50;1.00;;;;;;5102496;27;20505;-77
2022/05/25 01:56:30;;;;;;;8.23;6.10;;;12.50;1.00;;;;;;5127768;27;20623;-76
2022/05/25 01:59:00;;;;;;;6.50;5.90;;;12.40;1.00;;;;;;5130976;27;20632;-76
2022/05/25 02:01:28;;;;;;;7.40;6.23;;;12.50;1.00;;;;;;5125500;27;20460;-77
2022/05/25 02:07:15;;;;;;;7.43;6.73;;;12.50;1.00;;;;;;5061537;28;20476;-74
2022/05/25 02:10:04;;;;;;;6.50;5.90;;;12.50;1.00;;;;;;5107130;27;20476;-73
2022/05/25 02:12:50;;;;;;;7.33;6.63;;;12.50;1.00;;;;;;5131113;27;20411;-77
2022/05/25 02:15:29;;;;;;;7.20;6.40;;;12.50;1.00;;;;;;5132160;27;20501;-78
2022/05/25 02:21:07;;;;;;;7.77;6.87;;;12.50;1.00;;;;;;5131086;27;20452;-76
2022/05/25 02:23:45;;;;;;;6.93;6.30;;;12.60;1.00;;;;;;5126192;27;20416;-76
2022/05/25 02:26:22;;;;;;;7.40;6.67;;;12.60;1.00;;;;;;5133763;27;20457;-76
2022/05/25 02:28:59;;;;;;;7.27;6.57;;;12.50;1.00;;;;;;5126195;27;20559;-76
2022/05/25 02:31:36;;;;;;;7.37;6.70;;;12.50;1.00;;;;;;5126838;27;20433;-77
2022/05/25 02:34:07;;;;;;;7.97;7.27;;;12.50;1.00;;;;;;5120213;27;20420;-76
2022/05/25 02:36:38;;;;;;;8.43;7.03;;;12.50;1.00;;;;;;5123381;27;20471;-77
2022/05/25 02:39:11;;;;;;;7.30;6.70;;;12.50;1.00;;;;;;5136015;27;20423;-78
2022/05/25 02:41:47;;;;;;;7.40;6.67;;;12.60;1.00;;;;;;5133471;27;20456;-79
2022/05/25 02:44:16;;;;;;;7.30;6.60;;;12.60;1.00;;;;;;5132065;27;20571;-77
2022/05/25 02:46:46;;;;;;;7.23;6.50;;;12.60;1.00;;;;;;5107191;27;20428;-77
2022/05/25 02:49:17;;;;;;;7.50;6.70;;;12.60;1.00;;;;;;5131192;27;20670;-77
2022/05/25 02:51:46;;;;;;;6.40;5.90;;;12.60;1.00;;;;;;5130696;27;20433;-78
2022/05/25 02:54:17;;;;;;;8.90;8.10;;;12.60;1.00;;;;;;5131669;27;21197;-77
2022/05/25 02:56:46;;;;;;;7.53;6.90;;;12.70;1.00;;;;;;5120193;27;20499;-77
2022/05/25 02:59:16;;;;;;;6.93;6.40;;;12.70;1.00;;;;;;5119002;27;20457;-77
2022/05/25 03:01:46;;;;;;;9.73;8.73;;;12.70;1.00;;;;;;5121993;27;20428;-78
2022/05/25 03:04:15;;;;;;;7.30;6.50;;;12.70;1.00;;;;;;5101693;27;20418;-77
2022/05/25 03:06:47;;;;;;;10.50;8.50;;;12.70;1.00;;;;;;5132984;27;20510;-76
2022/05/25 03:09:19;;;;;;;10.97;7.90;;;12.80;1.00;;;;;;5120589;27;20473;-78
2022/05/25 03:11:46;;;;;;;8.47;7.67;;;12.70;1.00;;;;;;5118288;27;20457;-78
2022/05/25 03:14:16;;;;;;;10.13;9.13;;;12.80;1.00;;;;;;5130660;27;20424;-76
2022/05/25 03:16:46;;;;;;;8.87;7.97;;;12.80;1.00;;;;;;5111106;27;20440;-75
2022/05/25 03:19:17;;;;;;;9.53;8.30;;;12.90;1.00;;;;;;5101842;27;20439;-75
2022/05/25 03:21:56;;;;;;;7.93;7.13;;;13.00;1.00;;;;;;5113634;27;20494;-76
2022/05/25 03:24:27;;;;;;;9.53;8.27;;;13.00;1.00;;;;;;5112286;27;20455;-76
2022/05/25 03:26:56;;;;;;;9.50;7.83;;;13.10;1.00;;;;;;5121289;27;20434;-77
2022/05/25 03:29:27;;;;;;;9.93;8.33;;;13.10;1.00;;;;;;5121372;27;20428;-76
2022/05/25 03:31:56;;;;;;;9.70;8.10;;;13.20;1.00;;;;;;5125496;27;20480;-75
2022/05/25 03:34:26;;;;;;;14.90;13.40;;;13.20;1.00;;;;;;5119841;27;20441;-76
2022/05/25 03:36:56;;;;;;;8.93;7.67;;;13.20;1.00;;;;;;5130160;27;20447;-76
2022/05/25 03:39:35;;;;;;;8.47;7.40;;;13.20;1.00;;;;;;5131187;27;20435;-76
2022/05/25 03:42:06;;;;;;;8.53;7.63;;;13.20;1.00;;;;;;5121533;27;20417;-75
2022/05/25 03:44:36;;;;;;;8.33;7.50;;;13.30;1.00;;;;;;5118443;27;20964;-75
2022/05/25 03:47:04;;;;;;;9.33;8.33;;;13.30;1.00;;;;;;5120439;27;20474;-74
2022/05/25 03:49:32;;;;;;;11.53;7.80;;;13.40;1.00;;;;;;5122655;27;20459;-75
2022/05/25 03:52:00;;;;;;;9.17;8.27;;;13.50;1.00;;;;;;5124318;27;20522;-74
2022/05/25 03:54:27;;;;;;;14.57;11.70;;;13.50;1.00;;;;;;5122813;27;20528;-77
2022/05/25 03:56:53;;;;;;;9.43;8.43;;;13.60;1.00;;;;;;5124471;27;20487;-76
2022/05/25 03:59:20;;;;;;;8.13;7.43;;;13.60;1.00;;;;;;5127043;27;20453;-76
2022/05/25 04:01:47;;;;;;;8.10;7.40;;;13.70;1.00;;;;;;5116745;27;20445;-76
2022/05/25 04:04:13;;;;;;;8.70;7.87;;;13.80;1.00;;;;;;5116933;27;21306;-74
2022/05/25 04:06:40;;;;;;;9.27;8.37;;;13.80;1.00;;;;;;5119675;27;20520;-75
2022/05/25 04:09:10;;;;;;;8.20;6.73;;;13.80;1.00;;;;;;5121976;27;20486;-75
2022/05/25 04:11:37;;;;;;;9.03;8.13;;;13.80;1.00;;;;;;5119200;27;20457;-75
2022/05/25 04:14:04;;;;;;;11.60;10.50;;;13.90;1.00;;;;;;5106286;27;20495;-75
2022/05/25 04:16:31;;;;;;;8.10;7.30;;;14.00;1.00;;;;;;5124478;27;20444;-75
2022/05/25 04:18:58;;;;;;;10.80;9.80;;;14.00;1.00;;;;;;5124824;27;20552;-75
2022/05/25 04:21:25;;;;;;;7.80;7.20;;;14.10;1.00;;;;;;5124382;27;20452;-75
2022/05/25 04:23:52;;;;;;;11.93;10.93;;;14.20;1.00;;;;;;5125856;27;20458;-76
2022/05/25 04:26:23;;;;;;;50.67;34.93;;;14.30;1.00;;;;;;5128594;27;20560;-75
2022/05/25 04:28:50;;;;;;;18.20;8.70;;;14.40;1.00;;;;;;5128529;27;20448;-77
2022/05/25 04:31:17;;;;;;;9.80;8.90;;;14.50;1.00;;;;;;5128173;27;20448;-76
2022/05/25 04:33:44;;;;;;;8.93;8.03;;;14.70;1.00;;;;;;5122909;27;20445;-75
2022/05/25 04:36:11;;;;;;;8.00;7.20;;;14.80;1.00;;;;;;5124198;27;20517;-73
2022/05/25 04:38:37;;;;;;;8.37;7.17;;;14.80;1.00;;;;;;5125030;27;20552;-75
2022/05/25 04:41:04;;;;;;;8.90;8.10;;;14.90;1.00;;;;;;5125085;27;20472;-75
2022/05/25 04:43:32;;;;;;;8.70;7.33;;;14.90;1.00;;;;;;5123834;27;20624;-77
2022/05/25 04:46:01;;;;;;;8.57;7.57;;;15.00;1.00;;;;;;5130523;27;21052;-76
2022/05/25 04:48:30;;;;;;;9.83;8.83;;;15.00;1.00;;;;;;5124171;27;20542;-75
2022/05/25 04:50:58;;;;;;;10.40;8.23;;;15.00;1.00;;;;;;5123518;27;20457;-74
2022/05/25 04:53:26;;;;;;;10.07;7.67;;;15.10;1.00;;;;;;5125441;27;20526;-74
2022/05/25 04:58:47;;;;;;;10.97;6.60;;;15.30;1.00;;;;;;5136247;27;20443;-77
2022/05/25 05:01:19;;;;;;;7.17;6.50;;;15.50;1.00;;;;;;5136066;27;20459;-75
2022/05/25 05:03:48;;;;;;;6.60;5.70;;;15.60;1.00;;;;;;5113921;27;20440;-76
2022/05/25 05:06:18;;;;;;;6.53;5.73;;;15.70;1.00;;;;;;5134167;27;20452;-76
2022/05/25 05:08:46;;;;;;;6.03;5.40;;;15.80;1.00;;;;;;5133158;27;20422;-77
2022/05/25 05:11:19;;;;;;;6.40;5.80;;;15.90;1.00;;;;;;5118170;27;20481;-75
2022/05/25 05:14:00;;;;;;;5.23;4.73;;;16.00;1.00;;;;;;5130923;27;20420;-78
2022/05/25 05:16:27;;;;;;;6.10;5.10;;;16.10;1.00;;;;;;5129943;27;20488;-77
2022/05/25 05:18:57;;;;;;;5.80;5.20;;;16.20;1.00;;;;;;5136144;27;20422;-78
2022/05/25 05:21:27;;;;;;;6.00;5.23;;;16.40;1.00;;;;;;5134626;27;20441;-76
2022/05/25 05:23:57;;;;;;;6.63;5.40;;;16.50;1.00;;;;;;5112917;27;20447;-76
2022/05/25 05:26:27;;;;;;;5.50;5.00;;;16.60;1.00;;;;;;5113838;27;20550;-77
2022/05/25 05:28:58;;;;;;;5.90;5.23;;;16.70;1.00;;;;;;5110208;27;21401;-77
2022/05/25 05:31:29;;;;;;;6.50;6.00;;;16.90;1.00;;;;;;5118446;27;20437;-76
2022/05/25 05:34:00;;;;;;;7.53;4.80;;;17.00;1.00;;;;;;5124929;27;20413;-75
2022/05/25 05:36:35;;;;;;;5.50;4.80;;;17.20;1.00;;;;;;5130912;27;20434;-77
2022/05/25 05:39:08;;;;;;;5.10;4.60;;;17.10;1.00;;;;;;5133995;27;20426;-74
2022/05/25 05:41:40;;;;;;;5.23;4.67;;;17.20;1.00;;;;;;5103872;27;20434;-74
2022/05/25 05:44:16;;;;;;;5.97;5.33;;;17.30;1.00;;;;;;5118170;27;20958;-75
2022/05/25 05:46:44;;;;;;;5.97;5.17;;;17.30;1.00;;;;;;5129888;27;20456;-75
2022/05/25 05:49:13;;;;;;;5.40;4.90;;;17.30;1.00;;;;;;5126349;27;20456;-75
2022/05/25 05:51:44;;;;;;;5.50;4.90;;;17.30;1.00;;;;;;5132300;27;20458;-77
2022/05/25 05:54:16;;;;;;;7.50;5.80;;;17.40;1.00;;;;;;5128517;27;20425;-78
2022/05/25 05:56:46;;;;;;;6.60;5.90;;;17.40;1.00;;;;;;5124461;27;20479;-78
2022/05/25 05:59:14;;;;;;;6.30;5.40;;;17.30;1.00;;;;;;5116165;27;20452;-80
2022/05/25 06:01:44;;;;;;;8.50;5.40;;;17.40;1.00;;;;;;5128202;27;20554;-79
2022/05/25 06:04:12;;;;;;;6.17;5.57;;;17.40;1.00;;;;;;5133893;27;20449;-78
2022/05/25 06:06:47;;;;;;;5.53;4.90;;;17.50;1.00;;;;;;5118751;27;20551;-77
2022/05/25 06:09:14;;;;;;;6.60;6.00;;;17.60;1.00;;;;;;5116658;27;20471;-78
2022/05/25 06:11:44;;;;;;;6.47;5.77;;;17.80;1.00;;;;;;5125635;27;20436;-76
2022/05/25 06:14:17;;;;;;;7.60;5.63;;;17.90;1.00;;;;;;5129072;27;20436;-77
2022/05/25 06:19:37;;;;;;;7.80;7.00;;;17.90;1.00;;;;;;5130377;27;20831;-76
2022/05/25 06:22:09;;;;;;;7.80;6.87;;;17.90;1.00;;;;;;5125991;27;20483;-76
2022/05/25 06:24:38;;;;;;;6.73;6.13;;;17.90;1.00;;;;;;5123308;27;20446;-76
2022/05/25 06:27:08;;;;;;;7.10;6.40;;;18.10;1.00;;;;;;5126656;27;21332;-76
2022/05/25 06:29:40;;;;;;;6.30;5.70;;;18.10;1.00;;;;;;5126844;27;20453;-76
2022/05/25 06:32:12;;;;;;;5.67;5.07;;;18.10;1.00;;;;;;5123582;27;20464;-77
2022/05/25 06:34:47;;;;;;;7.00;6.40;;;18.30;1.00;;;;;;5122533;27;20457;-75
2022/05/25 06:37:17;;;;;;;7.37;5.60;;;18.40;1.00;;;;;;5132497;27;20463;-75
2022/05/25 06:39:44;;;;;;;9.90;5.83;;;18.50;1.00;;;;;;5127493;27;20528;-76
2022/05/25 06:42:14;;;;;;;8.07;6.00;;;18.60;1.00;;;;;;5127425;27;20443;-75
2022/05/25 06:44:46;;;;;;;7.30;6.23;;;18.80;1.00;;;;;;5112981;27;20418;-76
2022/05/25 06:47:16;;;;;;;11.23;7.37;;;19.10;1.00;;;;;;5129832;27;20471;-75
2022/05/25 06:49:45;;;;;;;7.00;5.43;;;19.40;1.00;;;;;;5131516;27;20460;-77
2022/05/25 06:52:15;;;;;;;6.57;5.00;;;19.60;1.00;;;;;;5130550;27;20446;-76
2022/05/25 06:54:43;;;;;;;7.50;5.83;;;19.60;1.00;;;;;;5121675;27;20409;-76
2022/05/25 06:57:12;;;;;;;7.47;5.30;;;19.80;1.00;;;;;;5114157;27;20657;-75
2022/05/25 06:59:38;;;;;;;8.60;6.73;;;19.80;1.00;;;;;;5123903;27;20936;-76
2022/05/25 07:02:08;;;;;;;19.27;10.20;;;19.70;1.00;;;;;;5114098;27;20525;-77
2022/05/25 07:04:34;;;;;;;9.30;6.13;;;19.70;1.00;;;;;;5116798;27;21190;-77
2022/05/25 07:07:02;;;;;;;6.60;5.53;;;19.80;1.00;;;;;;5120861;27;21176;-77
2022/05/25 07:09:30;;;;;;;7.60;4.40;;;19.80;1.00;;;;;;5117805;27;20459;-77
2022/05/25 07:11:57;;;;;;;7.50;4.90;;;19.80;1.00;;;;;;5120113;27;20569;-77
2022/05/25 07:14:24;;;;;;;9.37;4.90;;;19.80;1.00;;;;;;5119966;27;20422;-76
2022/05/25 07:16:51;;;;;;;8.00;5.30;;;19.70;1.00;;;;;;5114709;27;20476;-76
2022/05/25 07:19:21;;;;;;;8.83;5.33;;;19.70;1.00;;;;;;5115730;27;20460;-76
2022/05/25 07:21:48;;;;;;;17.17;12.40;;;19.70;1.00;;;;;;5119756;27;20458;-76
2022/05/25 07:24:15;;;;;;;7.80;5.30;;;19.60;1.00;;;;;;5118432;27;20464;-76
2022/05/25 07:26:42;;;;;;;8.87;6.37;;;19.60;1.00;;;;;;5122186;27;20453;-77
2022/05/25 07:29:09;;;;;;;8.37;5.90;;;19.60;1.00;;;;;;5123649;27;20983;-76
2022/05/25 07:31:41;;;;;;;9.27;6.30;;;19.70;1.00;;;;;;5113813;27;20496;-76
2022/05/25 07:34:12;;;;;;;7.60;5.40;;;19.80;1.00;;;;;;5117822;27;20423;-75
2022/05/25 07:36:42;;;;;;;9.27;6.67;;;19.90;1.00;;;;;;5117638;27;20472;-74
2022/05/25 07:39:14;;;;;;;7.40;4.50;;;20.00;1.00;;;;;;5122756;27;20575;-75
2022/05/25 07:41:44;;;;;;;13.70;7.00;;;20.20;1.00;;;;;;5118791;27;20465;-75
2022/05/25 07:44:15;;;;;;;8.07;5.47;;;20.20;1.00;;;;;;5125234;27;20518;-76
2022/05/25 07:46:42;;;;;;;7.53;5.00;;;20.30;1.00;;;;;;5129896;27;20464;-74
2022/05/25 07:49:08;;;;;;;8.07;5.53;;;20.20;1.00;;;;;;5127229;27;20434;-77
2022/05/25 07:51:36;;;;;;;8.03;5.03;;;20.20;1.00;;;;;;5123409;27;20303;-77
2022/05/25 07:54:05;;;;;;;8.77;5.33;;;20.30;1.00;;;;;;5117714;27;20463;-76
2022/05/25 07:56:35;;;;;;;7.40;4.53;;;20.20;1.00;;;;;;5119475;27;20473;-77
2022/05/25 07:59:03;;;;;;;6.37;4.40;;;20.30;1.00;;;;;;5128933;27;20449;-77
2022/05/25 08:07:05;;;;;;;6.30;4.40;;;20.40;1.00;;;;;;5128770;27;20504;-76
2022/05/25 08:09:34;;;;;;;9.70;5.83;;;20.30;1.00;;;;;;5126952;27;20480;-76
2022/05/25 08:12:01;;;;;;;8.60;4.67;;;20.10;1.00;;;;;;5121681;27;20506;-76
2022/05/25 08:14:30;;;;;;;7.87;5.00;;;20.00;1.00;;;;;;5121969;27;20461;-76
2022/05/25 08:16:56;;;;;;;7.87;4.70;;;20.00;1.00;;;;;;5124487;27;20456;-76
2022/05/25 08:19:23;;;;;;;5.67;4.00;;;19.90;1.00;;;;;;5126004;27;20881;-76
2022/05/25 08:21:51;;;;;;;7.37;4.83;;;19.90;1.00;;;;;;5121547;27;20472;-76
2022/05/25 08:24:19;;;;;;;7.43;4.27;;;19.80;1.00;;;;;;5122889;27;20624;-75
2022/05/25 08:26:47;;;;;;;6.00;4.73;;;19.90;1.00;;;;;;5121070;27;20468;-77
2022/05/25 08:29:14;;;;;;;9.80;5.50;;;19.80;1.00;;;;;;5125498;27;20453;-75
2022/05/25 08:31:41;;;;;;;8.70;5.40;;;19.90;1.00;;;;;;5117338;27;20542;-75
2022/05/25 08:34:08;;;;;;;7.70;5.10;;;19.90;1.00;;;;;;5121390;27;21379;-75
2022/05/25 08:36:34;;;;;;;6.70;5.10;;;19.90;1.00;;;;;;5124028;27;20465;-76
2022/05/25 08:39:01;;;;;;;6.53;4.67;;;20.10;1.00;;;;;;5120331;27;20533;-76
2022/05/25 08:41:32;;;;;;;8.23;4.70;;;20.30;1.00;;;;;;5124019;27;20568;-76
2022/05/25 08:44:01;;;;;;;7.13;4.40;;;20.30;1.00;;;;;;5122993;27;20585;-76
2022/05/25 08:46:30;;;;;;;7.47;4.53;;;20.40;1.00;;;;;;5122014;27;20499;-75
2022/05/25 08:49:01;;;;;;;6.30;4.60;;;20.60;1.00;;;;;;5124408;27;20444;-76
2022/05/25 08:51:29;;;;;;;8.90;4.67;;;20.80;1.00;;;;;;5129079;27;20460;-77
2022/05/25 08:53:57;;;;;;;6.97;5.20;;;21.00;1.00;;;;;;5126169;27;20545;-76
2022/05/25 08:56:30;;;;;;;9.03;4.63;;;21.00;1.00;;;;;;5125678;27;20547;-76
2022/05/25 08:59:03;;;;;;;6.93;4.80;;;21.10;1.00;;;;;;5121273;27;20543;-75
2022/05/25 09:01:35;;;;;;;8.13;4.10;;;21.20;1.00;;;;;;5124408;27;20480;-77
2022/05/25 09:04:10;;;;;;;7.70;4.77;;;21.00;1.00;;;;;;5123273;27;20472;-77
2022/05/25 09:06:47;;;;;;;6.80;3.90;;;21.10;1.00;;;;;;5120358;27;20907;-78
2022/05/25 09:09:20;;;;;;;5.83;3.90;;;20.90;1.00;;;;;;5123829;27;20866;-79
2022/05/25 09:11:52;;;;;;;6.10;4.13;;;20.80;1.00;;;;;;5123476;27;20586;-78
2022/05/25 09:14:26;;;;;;;8.27;4.03;;;20.80;1.00;;;;;;5126048;27;20488;-78
2022/05/25 09:16:56;;;;;;;7.23;4.00;;;20.80;1.00;;;;;;5126608;27;20472;-79
2022/05/25 09:19:27;;;;;;;6.70;3.23;;;20.70;1.00;;;;;;5123428;27;20545;-79
2022/05/25 09:21:56;;;;;;;7.10;3.80;;;20.40;1.00;;;;;;5121704;27;20549;-79
2022/05/25 09:24:25;;;;;;;5.23;2.97;;;20.50;1.00;;;;;;5124902;27;20958;-80
2022/05/25 09:26:53;;;;;;;6.90;3.70;;;20.70;1.00;;;;;;5120946;27;20565;-78
2022/05/25 09:29:22;;;;;;;6.70;4.40;;;21.00;1.00;;;;;;5122991;27;20471;-79
2022/05/25 09:31:53;;;;;;;6.30;3.00;;;21.90;1.00;;;;;;5124295;27;21002;-82
2022/05/25 09:34:32;;;;;;;6.37;4.60;;;23.10;1.00;;;;;;5121522;27;20458;-77
2022/05/25 09:37:08;;;;;;;6.30;2.70;;;24.70;1.00;;;;;;5101528;27;21221;-81
2022/05/25 09:39:40;;;;;;;7.33;3.40;;;26.30;1.00;;;;;;5101847;27;20449;-80
2022/05/25 09:42:13;;;;;;;5.70;2.70;;;26.90;1.00;;;;;;5100522;27;20465;-78
2022/05/25 09:44:42;;;;;;;6.10;3.00;;;27.00;1.00;;;;;;5101225;27;20953;-79
2022/05/25 09:47:19;;;;;;;8.60;3.53;;;26.90;1.00;;;;;;5099787;27;20476;-78
2022/05/25 09:49:49;;;;;;;7.07;3.00;;;26.90;1.00;;;;;;5099059;27;20589;-79
2022/05/25 09:52:21;;;;;;;9.47;5.80;;;27.20;1.00;;;;;;5101036;27;20462;-78
2022/05/25 09:54:58;;;;;;;6.63;3.30;;;26.70;1.00;;;;;;5100501;27;20524;-79
2022/05/25 09:57:29;;;;;;;9.80;3.13;;;25.70;1.00;;;;;;5104175;27;21459;-80
2022/05/25 10:00:00;;;;;;;7.43;3.03;;;26.40;1.00;;;;;;5101978;27;20458;-79
2022/05/25 10:02:30;;;;;;;6.50;2.20;;;27.80;1.00;;;;;;5101028;27;20462;-79
2022/05/25 10:05:10;;;;;;;8.77;2.90;;;29.10;1.00;;;;;;5098131;27;20904;-79
2022/05/25 10:07:40;;;;;;;6.37;1.70;;;29.90;1.00;;;;;;5098574;27;20493;-80
2022/05/25 10:10:11;;;;;;;6.50;1.90;;;30.70;1.00;;;;;;5096185;27;20613;-78
2022/05/25 10:12:43;;;;;;;6.80;2.40;;;31.10;1.00;;;;;;5099432;27;20878;-79
2022/05/25 10:15:15;;;;;;;8.00;2.00;;;31.00;1.00;;;;;;5101139;27;20552;-77
2022/05/25 10:17:44;;;;;;;9.50;2.20;;;31.20;1.00;;;;;;5104120;27;20960;-78
2022/05/25 10:20:23;;;;;;;5.90;1.90;;;31.90;1.00;;;;;;5101261;27;20509;-78
2022/05/25 10:22:52;;;;;;;7.37;2.10;;;31.20;1.00;;;;;;5099431;27;20934;-79
2022/05/25 10:25:28;;;;;;;8.10;2.83;;;31.40;1.00;;;;;;5099916;27;20960;-78
2022/05/25 10:27:55;;;;;;;6.00;2.00;;;31.80;1.00;;;;;;5103574;27;20456;-78
2022/05/25 10:39:17;;;;;;;6.00;1.60;;;27.50;1.00;;;;;;5123700;27;20433;-80
2022/05/25 10:41:45;;;;;;;5.90;1.50;;;27.90;1.00;;;;;;5123189;27;20485;-80
2022/05/25 10:44:17;;;;;;;5.90;1.63;;;28.70;1.00;;;;;;5123280;27;20434;-80
2022/05/25 10:46:52;;;;;;;5.60;1.67;;;28.50;1.00;;;;;;5122415;27;20483;-78
2022/05/25 10:49:25;;;;;;;6.53;1.93;;;28.40;1.00;;;;;;5107219;27;20471;-80
2022/05/25 10:51:58;;;;;;;6.90;2.10;;;28.70;1.00;;;;;;5124683;27;22749;-80
2022/05/25 10:54:47;;;;;;;5.83;1.60;;;29.40;1.00;;;;;;5120732;27;20919;-80
2022/05/25 10:57:50;;;;;;;8.10;2.80;;;29.80;1.00;;;;;;5123667;27;20463;-81
2022/05/25 11:00:21;;;;;;;5.40;1.50;;;30.70;1.00;;;;;;5105694;27;21168;-78
2022/05/25 11:03:25;;;;;;;12.80;3.33;;;30.20;1.00;;;;;;5124368;27;20550;-79
2022/05/25 11:05:57;;;;;;;5.73;1.77;;;30.20;1.00;;;;;;5126205;27;20461;-80
2022/05/25 11:08:39;;;;;;;7.37;1.80;;;29.80;1.00;;;;;;5124074;27;21100;-80
2022/05/25 11:11:13;;;;;;;6.50;2.13;;;28.80;1.00;;;;;;5123882;27;20471;-80
2022/05/25 11:14:01;;;;;;;6.03;1.83;;;27.80;1.00;;;;;;5125190;27;20441;-81
2022/05/25 11:16:37;;;;;;;6.20;1.63;;;26.80;1.00;;;;;;5124553;27;20480;-80
2022/05/25 11:19:50;;;;;;;5.60;1.80;;;26.30;1.00;;;;;;5121975;27;20769;-81
2022/05/25 11:22:36;;;;;;;6.70;1.90;;;25.90;1.00;;;;;;5120680;27;20546;-80
2022/05/25 11:25:35;;;;;;;6.40;2.03;;;26.90;1.00;;;;;;5123482;27;20448;-78
2022/05/25 11:28:17;;;;;;;5.90;1.70;;;29.40;1.00;;;;;;5120140;27;22025;-80
2022/05/25 11:30:52;;;;;;;6.90;1.60;;;29.50;1.00;;;;;;5123967;27;20514;-80
2022/05/25 11:33:33;;;;;;;6.43;1.53;;;28.80;1.00;;;;;;5121646;27;20558;-80
2022/05/25 11:36:11;;;;;;;6.70;1.60;;;27.90;1.00;;;;;;5112852;27;20465;-79
2022/05/25 11:39:02;;;;;;;6.47;1.60;;;27.80;1.00;;;;;;5119527;27;20557;-80
2022/05/25 11:41:37;;;;;;;5.43;1.03;;;27.30;1.00;;;;;;5125455;27;20954;-81
2022/05/25 11:44:44;;;;;;;6.37;1.73;;;27.10;1.00;;;;;;5097484;27;20467;-80
2022/05/25 11:47:24;;;;;;;5.23;1.20;;;27.90;1.00;;;;;;5023132;28;20471;-81
2022/05/25 11:50:08;;;;;;;5.50;1.50;;;27.40;1.00;;;;;;5078067;28;20461;-79
2022/05/25 11:52:54;;;;;;;6.20;1.73;;;26.50;1.00;;;;;;5085759;28;20423;-80
2022/05/25 11:55:27;;;;;;;7.63;1.67;;;25.70;1.00;;;;;;5083927;27;20505;-79
2022/05/25 11:58:04;;;;;;;5.70;1.60;;;25.30;1.00;;;;;;5095387;27;20418;-79
2022/05/25 12:00:57;;;;;;;6.00;1.53;;;25.60;1.00;;;;;;5096741;27;20511;-79
2022/05/25 12:03:49;;;;;;;5.60;1.50;;;28.10;1.00;;;;;;5097917;27;22221;-81
2022/05/25 12:06:26;;;;;;;5.83;1.40;;;31.30;1.00;;;;;;5095566;27;20538;-79
2022/05/25 12:09:09;;;;;;;5.50;1.33;;;33.30;1.00;;;;;;5094924;27;20896;-83
2022/05/25 12:11:42;;;;;;;11.53;1.60;;;34.50;1.00;;;;;;5102047;27;20449;-75
2022/05/25 12:14:28;;;;;;;6.43;1.30;;;35.30;1.00;;;;;;5098177;27;20529;-76
2022/05/25 12:17:03;;;;;;;6.70;1.33;;;34.50;1.00;;;;;;5096832;27;20457;-76
2022/05/25 12:19:35;;;;;;;6.07;1.17;;;33.50;1.00;;;;;;5102122;27;20504;-75
2022/05/25 12:22:07;;;;;;;6.67;1.90;;;32.70;1.00;;;;;;5099386;27;20938;-76
2022/05/25 12:24:38;;;;;;;6.40;1.23;;;33.20;1.00;;;;;;5097566;27;20979;-76
2022/05/25 12:27:10;;;;;;;6.57;1.10;;;33.40;1.00;;;;;;5099948;27;20529;-76
2022/05/25 12:29:41;;;;;;;5.43;1.10;;;32.10;1.00;;;;;;5100692;27;20830;-78
2022/05/25 12:32:09;;;;;;;5.50;1.30;;;29.90;1.00;;;;;;5101923;27;20477;-75
2022/05/25 12:34:40;;;;;;;5.40;1.00;;;28.50;1.00;;;;;;5100848;27;20527;-77
2022/05/25 12:37:10;;;;;;;6.80;1.43;;;27.60;1.00;;;;;;5101488;27;20788;-77
2022/05/25 12:40:00;;;;;;;8.10;1.50;;;28.30;1.00;;;;;;5096876;27;20932;-77
2022/05/25 12:42:47;;;;;;;6.67;1.20;;;30.30;1.00;;;;;;5101622;27;20550;-76
2022/05/25 12:48:47;;;;;;;6.03;1.60;;;33.20;1.00;;;;;;5100849;27;20462;-76
2022/05/25 12:51:31;;;;;;;5.70;1.37;;;34.50;1.00;;;;;;5105468;27;20453;-77
2022/05/25 12:53:59;;;;;;;6.20;1.10;;;35.20;1.00;;;;;;5101419;27;20482;-77
2022/05/25 12:56:37;;;;;;;6.30;1.40;;;34.80;1.00;;;;;;5101821;27;20466;-76
2022/05/25 12:59:08;;;;;;;6.07;1.27;;;34.60;1.00;;;;;;5087997;28;20482;-76
2022/05/25 13:01:38;;;;;;;5.50;1.10;;;34.50;1.00;;;;;;5086616;27;20465;-77
2022/05/25 13:04:33;;;;;;;5.67;1.07;;;34.30;1.00;;;;;;5106039;27;20458;-75
2022/05/25 13:07:23;;;;;;;5.83;1.37;;;34.30;1.00;;;;;;5098567;27;21170;-77
2022/05/25 13:09:51;;;;;;;7.80;1.30;;;34.60;1.00;;;;;;5100556;27;20467;-75
2022/05/25 13:12:46;;;;;;;5.90;1.10;;;35.40;1.00;;;;;;5106440;27;20450;-77
2022/05/25 13:15:39;;;;;;;6.63;1.00;;;36.10;1.00;;;;;;5087757;28;20960;-77
2022/05/25 13:18:09;;;;;;;5.80;1.50;;;35.50;1.00;;;;;;5088457;27;20482;-76
2022/05/25 13:21:00;;;;;;;6.30;1.70;;;33.80;1.00;;;;;;5083525;27;20980;-75
2022/05/25 13:24:06;;;;;;;5.30;1.27;;;31.80;1.00;;;;;;5102503;27;20469;-77
2022/05/25 13:26:53;;;;;;;6.13;1.40;;;29.70;1.00;;;;;;5103660;27;20523;-76
2022/05/25 13:29:28;;;;;;;5.63;1.30;;;28.10;1.00;;;;;;5100214;27;20496;-76
2022/05/25 13:31:58;;;;;;;7.03;2.30;;;26.80;1.00;;;;;;5102615;27;20547;-75
2022/05/25 13:34:30;;;;;;;4.93;1.20;;;26.10;1.00;;;;;;5103680;27;20890;-76
2022/05/25 13:37:01;;;;;;;7.47;2.00;;;25.20;1.00;;;;;;5104533;27;20462;-76
2022/05/25 13:39:29;;;;;;;5.70;1.37;;;24.40;1.00;;;;;;5101326;27;20480;-76
2022/05/25 13:42:01;;;;;;;8.43;1.60;;;24.00;1.00;;;;;;5105684;27;20994;-76
2022/05/25 13:44:41;;;;;;;6.53;1.30;;;23.60;1.00;;;;;;5102781;27;20801;-76
2022/05/25 13:47:07;;;;;;;8.63;2.07;;;23.20;1.00;;;;;;5107311;27;20942;-76
2022/05/25 13:49:38;;;;;;;6.03;1.83;;;23.00;1.00;;;;;;5105351;27;20447;-76
2022/05/25 13:52:15;;;;;;;5.80;1.40;;;22.90;1.00;;;;;;5104353;27;20920;-75
2022/05/25 13:54:45;;;;;;;6.00;1.60;;;22.60;1.00;;;;;;5100087;27;20442;-76
2022/05/25 13:57:22;;;;;;;7.70;1.60;;;21.80;1.00;;;;;;5101259;27;20449;-76
2022/05/25 13:59:50;;;;;;;7.97;1.90;;;21.20;1.00;;;;;;5105746;27;20501;-77